createdAt,value
2023-06-11T00:02:09.918Z,20.00
2023-06-11T00:04:46.735Z,20.10
2023-06-11T00:07:21.326Z,20.00
2023-06-11T00:09:54.204Z,20.00
2023-06-11T00:12:26.340Z,20.00
2023-06-11T00:14:58.622Z,19.90
2023-06-11T00:17:34.707Z,19.90
2023-06-11T00:20:10.933Z,19.90
2023-06-11T00:22:43.352Z,19.90
2023-06-11T00:25:16.245Z,19.80
2023-06-11T00:27:48.413Z,19.80
2023-06-11T00:30:20.646Z,19.80
2023-06-11T00:32:52.867Z,19.80
2023-06-11T00:35:25.118Z,19.70
2023-06-11T00:37:58.808Z,19.70
2023-06-11T00:40:32.541Z,19.70
2023-06-11T00:43:05.645Z,19.70
2023-06-11T00:45:39.629Z,19.60
2023-06-11T00:48:13.307Z,19.60
2023-06-11T00:50:48.818Z,19.60
2023-06-11T00:53:23.236Z,19.50
2023-06-11T00:55:55.502Z,19.50
2023-06-11T00:58:28.989Z,19.40
2023-06-11T01:01:03.508Z,19.40
2023-06-11T01:03:37.917Z,19.40
2023-06-11T01:06:20.437Z,19.40
2023-06-11T01:08:59.109Z,19.40
2023-06-11T01:11:36.728Z,19.30
2023-06-11T01:14:14.423Z,19.30
2023-06-11T01:16:54.013Z,19.30
2023-06-11T01:19:32.377Z,19.30
2023-06-11T01:22:52.818Z,19.20
2023-06-11T01:26:16.772Z,19.30
2023-06-11T01:29:07.937Z,19.20
2023-06-11T01:31:41.881Z,19.20
2023-06-11T01:34:14.613Z,19.20
2023-06-11T01:36:47.197Z,19.10
2023-06-11T01:39:20.919Z,19.10
2023-06-11T01:41:53.647Z,19.10
2023-06-11T01:44:27.772Z,19.00
2023-06-11T01:47:00.814Z,19.00
2023-06-11T01:49:33.041Z,19.00
2023-06-11T01:52:06.552Z,19.00
2023-06-11T01:54:39.107Z,19.00
2023-06-11T01:57:11.459Z,19.00
2023-06-11T01:59:44.204Z,18.90
2023-06-11T02:02:16.632Z,18.90
2023-06-11T02:04:48.991Z,18.90
2023-06-11T02:07:22.148Z,18.80
2023-06-11T02:09:55.699Z,18.70
2023-06-11T02:12:27.928Z,18.70
2023-06-11T02:15:00.157Z,18.70
2023-06-11T02:17:32.541Z,18.60
2023-06-11T02:20:09.614Z,18.60
2023-06-11T02:22:42.341Z,18.60
2023-06-11T02:25:15.096Z,18.60
2023-06-11T02:27:49.922Z,18.50
2023-06-11T02:30:22.149Z,18.50
2023-06-11T02:32:54.292Z,18.50
2023-06-11T02:35:26.805Z,18.40
2023-06-11T02:37:58.943Z,18.40
2023-06-11T02:40:31.244Z,18.40
2023-06-11T02:43:03.386Z,18.30
2023-06-11T02:45:37.063Z,18.30
2023-06-11T02:48:09.437Z,18.30
2023-06-11T02:50:41.652Z,18.20
2023-06-11T02:53:13.767Z,18.20
2023-06-11T02:55:45.885Z,18.20
2023-06-11T02:58:18.286Z,18.20
2023-06-11T03:00:50.413Z,18.20
2023-06-11T03:03:22.611Z,18.20
2023-06-11T03:05:54.701Z,18.10
2023-06-11T03:08:26.841Z,18.10
2023-06-11T03:10:59.084Z,18.10
2023-06-11T03:13:31.285Z,18.10
2023-06-11T03:16:03.531Z,18.00
2023-06-11T03:18:35.739Z,18.00
2023-06-11T03:21:08.102Z,17.90
2023-06-11T03:23:41.057Z,17.90
2023-06-11T03:26:13.204Z,17.90
2023-06-11T03:28:45.365Z,17.90
2023-06-11T03:31:17.691Z,17.80
2023-06-11T03:33:49.957Z,17.80
2023-06-11T03:36:22.156Z,17.80
2023-06-11T03:38:54.373Z,17.80
2023-06-11T03:41:27.205Z,17.80
2023-06-11T03:43:59.325Z,17.80
2023-06-11T03:46:31.446Z,17.70
2023-06-11T03:49:03.516Z,17.70
2023-06-11T03:51:35.802Z,17.70
2023-06-11T03:54:08.118Z,17.70
2023-06-11T03:56:40.438Z,17.70
2023-06-11T03:59:12.570Z,17.70
2023-06-11T04:01:44.785Z,17.70
2023-06-11T04:04:17.206Z,17.70
2023-06-11T04:06:49.360Z,17.80
2023-06-11T04:09:21.862Z,17.80
2023-06-11T04:11:55.165Z,17.80
2023-06-11T04:14:27.248Z,17.80
2023-06-11T04:16:59.410Z,17.80
2023-06-11T04:19:31.617Z,17.80
2023-06-11T04:22:03.939Z,17.90
2023-06-11T04:24:36.461Z,17.90
2023-06-11T04:27:09.163Z,17.90
2023-06-11T04:29:45.719Z,18.00
2023-06-11T04:32:22.368Z,18.00
2023-06-11T04:34:58.866Z,18.10
2023-06-11T04:37:40.882Z,18.10
2023-06-11T04:40:12.985Z,18.20
2023-06-11T04:42:45.488Z,18.20
2023-06-11T04:45:20.371Z,18.30
2023-06-11T04:47:52.724Z,18.30
2023-06-11T04:50:26.154Z,18.30
2023-06-11T04:52:58.503Z,18.40
2023-06-11T04:55:39.737Z,18.40
2023-06-11T04:58:13.380Z,18.40
2023-06-11T05:00:47.516Z,18.60
2023-06-11T05:03:20.560Z,18.60
2023-06-11T05:05:54.950Z,18.60
2023-06-11T05:08:29.454Z,18.70
2023-06-11T05:11:01.959Z,18.70
2023-06-11T05:13:34.025Z,18.80
2023-06-11T05:16:07.070Z,18.80
2023-06-11T05:18:40.226Z,18.90
2023-06-11T05:21:13.562Z,18.90
2023-06-11T05:23:46.505Z,19.00
2023-06-11T05:26:20.227Z,19.00
2023-06-11T05:29:08.031Z,19.10
2023-06-11T05:31:40.671Z,19.20
2023-06-11T05:34:13.096Z,19.30
2023-06-11T05:36:46.765Z,19.40
2023-06-11T05:39:21.505Z,19.50
2023-06-11T05:41:53.483Z,19.50
2023-06-11T05:44:25.554Z,19.60
2023-06-11T05:46:57.895Z,19.70
2023-06-11T05:49:30.413Z,19.90
2023-06-11T05:52:02.840Z,20.00
2023-06-11T05:54:35.363Z,20.20
2023-06-11T05:57:17.977Z,20.30
2023-06-11T05:59:53.211Z,20.50
2023-06-11T06:02:26.862Z,20.70
2023-06-11T06:05:00.080Z,20.80
2023-06-11T06:07:32.315Z,21.00
2023-06-11T06:10:04.876Z,21.30
2023-06-11T06:12:37.525Z,21.50
2023-06-11T06:15:10.401Z,21.90
2023-06-11T06:17:42.867Z,22.30
2023-06-11T06:20:15.089Z,22.60
2023-06-11T06:22:47.487Z,22.80
2023-06-11T06:25:19.806Z,23.00
2023-06-11T06:27:52.167Z,23.50
2023-06-11T06:30:24.365Z,24.00
2023-06-11T06:32:58.643Z,24.50
2023-06-11T06:35:33.437Z,24.90
2023-06-11T06:38:06.629Z,25.60
2023-06-11T06:40:38.752Z,26.20
2023-06-11T06:43:10.837Z,26.80
2023-06-11T06:45:43.084Z,26.80
2023-06-11T06:48:15.245Z,27.30
2023-06-11T06:50:47.632Z,27.90
2023-06-11T06:53:19.926Z,28.40
2023-06-11T06:55:53.553Z,28.50
2023-06-11T06:58:26.319Z,28.60
2023-06-11T07:00:59.442Z,28.40
2023-06-11T07:03:31.939Z,28.50
2023-06-11T07:06:05.995Z,28.10
2023-06-11T07:08:39.663Z,28.00
2023-06-11T07:11:15.480Z,28.10
2023-06-11T07:13:50.315Z,28.60
2023-06-11T07:16:22.699Z,29.30
2023-06-11T07:18:54.970Z,29.10
2023-06-11T07:21:27.085Z,29.00
2023-06-11T07:24:07.102Z,28.90
2023-06-11T07:26:44.041Z,29.10
2023-06-11T07:29:18.268Z,29.30
2023-06-11T07:31:53.417Z,29.60
2023-06-11T07:34:26.911Z,29.80
2023-06-11T07:36:59.080Z,30.00
2023-06-11T07:39:33.695Z,30.30
2023-06-11T07:42:08.789Z,30.80
2023-06-11T07:44:44.881Z,30.70
2023-06-11T07:47:17.368Z,31.00
2023-06-11T07:49:49.730Z,31.50
2023-06-11T07:52:22.225Z,31.80
2023-06-11T07:54:54.596Z,31.60
2023-06-11T07:57:26.743Z,31.40
2023-06-11T07:59:59.012Z,31.30
2023-06-11T08:02:32.411Z,31.30
2023-06-11T08:05:05.103Z,31.20
2023-06-11T08:07:37.656Z,31.20
2023-06-11T08:10:14.436Z,31.20
2023-06-11T08:12:50.640Z,31.20
2023-06-11T08:15:25.402Z,31.10
2023-06-11T08:17:58.130Z,30.70
2023-06-11T08:20:31.288Z,30.40
2023-06-11T08:23:04.505Z,30.50
2023-06-11T08:25:45.240Z,30.40
2023-06-11T08:28:21.325Z,30.30
2023-06-11T08:30:59.151Z,30.30
2023-06-11T08:33:42.228Z,30.30
2023-06-11T08:36:16.066Z,30.00
2023-06-11T08:38:52.403Z,30.00
2023-06-11T08:41:33.694Z,30.20
2023-06-11T08:44:11.927Z,30.10
2023-06-11T08:46:47.094Z,30.00
2023-06-11T08:49:25.289Z,29.90
2023-06-11T08:52:04.751Z,29.70
2023-06-11T08:54:38.761Z,29.50
2023-06-11T08:57:11.612Z,29.20
2023-06-11T08:59:43.758Z,29.20
2023-06-11T09:02:16.054Z,29.10
2023-06-11T09:04:49.311Z,28.90
2023-06-11T09:07:26.931Z,28.80
2023-06-11T09:10:05.716Z,28.70
2023-06-11T09:12:39.165Z,28.70
2023-06-11T09:15:13.999Z,28.70
2023-06-11T09:17:53.827Z,28.50
2023-06-11T09:20:32.511Z,28.50
2023-06-11T09:23:09.724Z,28.50
2023-06-11T09:25:46.109Z,28.30
2023-06-11T09:28:24.368Z,28.40
2023-06-11T09:31:09.983Z,28.50
2023-06-11T09:33:47.231Z,28.60
2023-06-11T09:36:24.073Z,28.50
2023-06-11T09:38:58.167Z,28.50
2023-06-11T09:41:55.864Z,28.50
2023-06-11T09:44:43.679Z,28.50
2023-06-11T09:47:22.993Z,28.40
2023-06-11T09:49:59.955Z,28.50
2023-06-11T09:52:39.867Z,28.50
2023-06-11T09:55:13.736Z,28.50
2023-06-11T09:57:50.959Z,28.50
2023-06-11T10:00:26.575Z,28.50
2023-06-11T10:02:59.155Z,28.60
2023-06-11T10:05:33.558Z,28.50
2023-06-11T10:08:13.686Z,28.50
2023-06-11T10:10:57.779Z,28.40
2023-06-11T10:13:35.517Z,28.30
2023-06-11T10:16:10.339Z,28.30
2023-06-11T10:18:42.612Z,28.40
2023-06-11T10:21:14.889Z,28.40
2023-06-11T10:23:52.387Z,28.50
2023-06-11T10:26:34.582Z,28.40
2023-06-11T10:29:12.254Z,28.30
2023-06-11T10:31:46.361Z,28.40
2023-06-11T10:34:29.819Z,28.30
2023-06-11T10:37:13.159Z,28.40
2023-06-11T10:39:52.083Z,28.50
2023-06-11T10:42:29.099Z,28.50
2023-06-11T10:45:21.225Z,28.50
2023-06-11T10:48:04.845Z,28.40
2023-06-11T10:50:37.577Z,28.50
2023-06-11T10:53:13.294Z,28.60
2023-06-11T10:55:48.540Z,28.70
2023-06-11T10:58:24.797Z,28.70
2023-06-11T11:01:00.453Z,28.80
2023-06-11T11:03:34.401Z,29.00
2023-06-11T11:06:07.053Z,29.10
2023-06-11T11:08:41.019Z,29.20
2023-06-11T11:11:13.311Z,29.40
2023-06-11T11:13:46.909Z,29.50
2023-06-11T11:16:21.410Z,29.60
2023-06-11T11:18:54.407Z,29.70
2023-06-11T11:21:30.913Z,29.70
2023-06-11T11:24:05.128Z,29.60
2023-06-11T11:26:48.395Z,29.60
2023-06-11T11:29:20.720Z,29.50
2023-06-11T11:31:53.441Z,29.50
2023-06-11T11:34:30.956Z,29.50
2023-06-11T11:37:09.062Z,29.60
2023-06-11T11:39:42.647Z,29.80
2023-06-11T11:42:19.130Z,30.00
2023-06-11T11:44:57.252Z,30.00
2023-06-11T11:47:31.735Z,30.20
2023-06-11T11:50:09.713Z,30.20
2023-06-11T11:53:18.029Z,30.30
2023-06-11T11:56:04.218Z,30.50
2023-06-11T11:58:45.660Z,30.80
2023-06-11T12:01:42.865Z,31.00
2023-06-11T12:04:46.056Z,31.00
2023-06-11T12:07:21.472Z,31.20
2023-06-11T12:09:53.757Z,31.30
2023-06-11T12:12:25.993Z,31.50
2023-06-11T12:14:58.088Z,31.50
2023-06-11T12:17:31.047Z,31.40
2023-06-11T12:20:04.613Z,31.40
2023-06-11T12:22:37.839Z,31.50
2023-06-11T12:25:10.593Z,31.40
2023-06-11T12:27:44.939Z,31.40
2023-06-11T12:30:17.255Z,31.50
2023-06-11T12:32:52.914Z,31.60
2023-06-11T12:35:29.057Z,31.50
2023-06-11T12:38:03.666Z,31.50
2023-06-11T12:40:37.968Z,31.70
2023-06-11T12:43:14.963Z,31.80
2023-06-11T12:45:48.694Z,31.80
2023-06-11T12:48:21.531Z,31.90
2023-06-11T12:50:54.184Z,32.00
2023-06-11T12:53:26.734Z,32.00
2023-06-11T12:55:59.019Z,31.90
2023-06-11T12:58:37.691Z,31.80
2023-06-11T13:01:12.088Z,31.80
2023-06-11T13:03:46.425Z,31.70
2023-06-11T13:06:22.661Z,31.80
2023-06-11T13:09:07.338Z,32.00
2023-06-11T13:11:51.474Z,32.30
2023-06-11T13:14:24.168Z,32.40
2023-06-11T13:16:56.852Z,32.20
2023-06-11T13:19:29.217Z,32.20
2023-06-11T13:22:01.633Z,32.10
2023-06-11T13:24:39.566Z,32.30
2023-06-11T13:27:12.244Z,32.20
2023-06-11T13:29:44.671Z,32.10
2023-06-11T13:32:17.937Z,32.20
2023-06-11T13:34:50.832Z,32.20
2023-06-11T13:37:23.531Z,32.40
2023-06-11T13:39:56.351Z,32.30
2023-06-11T13:42:28.987Z,32.30
2023-06-11T13:45:04.686Z,32.30
2023-06-11T13:47:37.605Z,32.40
2023-06-11T13:50:10.480Z,32.50
2023-06-11T13:52:42.951Z,32.60
2023-06-11T13:55:15.224Z,32.70
2023-06-11T13:57:47.740Z,32.80
2023-06-11T14:00:20.048Z,32.70
2023-06-11T14:02:52.373Z,32.40
2023-06-11T14:05:26.329Z,32.40
2023-06-11T14:07:59.876Z,32.50
2023-06-11T14:10:32.234Z,32.60
2023-06-11T14:13:04.593Z,32.60
2023-06-11T14:15:36.959Z,32.60
2023-06-11T14:18:09.470Z,32.60
2023-06-11T14:20:41.781Z,32.40
2023-06-11T14:23:14.044Z,32.40
2023-06-11T14:25:46.296Z,32.30
2023-06-11T14:28:18.849Z,32.30
2023-06-11T14:30:53.804Z,32.30
2023-06-11T14:33:26.642Z,32.20
2023-06-11T14:35:59.085Z,32.30
2023-06-11T14:38:35.468Z,32.20
2023-06-11T14:41:07.762Z,32.20
2023-06-11T14:43:39.877Z,32.10
2023-06-11T14:46:12.115Z,31.80
2023-06-11T14:48:44.252Z,31.30
2023-06-11T14:51:17.300Z,31.20
2023-06-11T14:53:49.668Z,31.10
2023-06-11T14:56:22.439Z,31.20
2023-06-11T14:58:54.647Z,31.40
2023-06-11T15:01:26.782Z,31.60
2023-06-11T15:03:59.026Z,31.70
2023-06-11T15:06:31.786Z,31.70
2023-06-11T15:09:06.016Z,31.80
2023-06-11T15:11:39.063Z,31.90
2023-06-11T15:14:11.253Z,32.00
2023-06-11T15:16:45.185Z,32.00
2023-06-11T15:19:17.422Z,32.00
2023-06-11T15:21:49.677Z,31.90
2023-06-11T15:24:22.888Z,32.00
2023-06-11T15:26:55.812Z,31.90
2023-06-11T15:29:27.985Z,31.90
2023-06-11T15:32:01.853Z,31.70
2023-06-11T15:34:34.757Z,31.40
2023-06-11T15:37:07.089Z,31.40
2023-06-11T15:39:39.520Z,31.50
2023-06-11T15:42:11.823Z,31.50
2023-06-11T15:44:44.418Z,31.40
2023-06-11T15:47:17.448Z,31.10
2023-06-11T15:49:49.976Z,30.90
2023-06-11T15:52:23.404Z,30.80
2023-06-11T15:54:55.490Z,30.80
2023-06-11T15:57:27.603Z,30.80
2023-06-11T16:00:00.116Z,30.70
2023-06-11T16:02:32.501Z,30.50
2023-06-11T16:05:04.926Z,30.40
2023-06-11T16:07:37.378Z,30.50
2023-06-11T16:10:13.183Z,30.60
2023-06-11T16:12:49.541Z,30.60
2023-06-11T16:15:21.848Z,30.70
2023-06-11T16:17:54.091Z,30.70
2023-06-11T16:20:27.697Z,30.60
2023-06-11T16:23:03.723Z,30.70
2023-06-11T16:25:38.668Z,30.60
2023-06-11T16:28:11.037Z,30.40
2023-06-11T16:30:44.223Z,30.30
2023-06-11T16:33:16.613Z,30.30
2023-06-11T16:35:48.915Z,30.20
2023-06-11T16:38:21.201Z,30.20
2023-06-11T16:40:53.502Z,30.10
2023-06-11T16:43:25.664Z,30.10
2023-06-11T16:45:57.797Z,30.00
2023-06-11T16:48:32.071Z,29.90
2023-06-11T16:51:04.330Z,29.90
2023-06-11T16:53:36.428Z,29.80
2023-06-11T16:56:08.553Z,29.80
2023-06-11T16:58:40.770Z,29.70
2023-06-11T17:01:13.276Z,29.70
2023-06-11T17:03:48.010Z,29.60
2023-06-11T17:06:21.351Z,29.50
2023-06-11T17:08:56.066Z,29.50
2023-06-11T17:11:28.218Z,29.40
2023-06-11T17:14:00.605Z,29.30
2023-06-11T17:16:32.895Z,29.20
2023-06-11T17:19:07.211Z,29.20
2023-06-11T17:21:39.811Z,29.20
2023-06-11T17:24:14.242Z,29.10
2023-06-11T17:26:46.681Z,29.00
2023-06-11T17:29:19.022Z,28.80
2023-06-11T17:31:52.399Z,28.70
2023-06-11T17:34:24.891Z,28.50
2023-06-11T17:36:57.647Z,28.40
2023-06-11T17:39:29.721Z,28.30
2023-06-11T17:42:02.582Z,28.20
2023-06-11T17:44:35.060Z,28.10
2023-06-11T17:47:07.399Z,28.00
2023-06-11T17:49:40.132Z,27.80
2023-06-11T17:52:14.318Z,27.70
2023-06-11T17:54:47.638Z,27.60
2023-06-11T17:57:21.818Z,27.50
2023-06-11T17:59:54.870Z,27.40
2023-06-11T18:02:27.726Z,27.30
2023-06-11T18:05:00.319Z,27.20
2023-06-11T18:07:33.182Z,27.20
2023-06-11T18:10:07.894Z,27.10
2023-06-11T18:12:42.866Z,27.00
2023-06-11T18:17:51.547Z,26.80
2023-06-11T18:20:24.586Z,26.70
2023-06-11T18:22:57.979Z,26.60
2023-06-11T18:25:31.468Z,26.50
2023-06-11T18:28:06.733Z,26.40
2023-06-11T18:30:39.345Z,26.40
2023-06-11T18:33:11.897Z,26.30
2023-06-11T18:35:44.262Z,26.20
2023-06-11T18:38:17.257Z,26.10
2023-06-11T18:40:50.249Z,26.10
2023-06-11T18:43:25.011Z,26.00
2023-06-11T18:45:57.576Z,25.90
2023-06-11T18:48:30.894Z,25.80
2023-06-11T18:51:03.778Z,25.70
2023-06-11T18:53:36.825Z,25.60
2023-06-11T18:56:09.832Z,25.60
2023-06-11T18:58:42.957Z,25.50
2023-06-11T19:01:16.110Z,25.40
2023-06-11T19:03:49.363Z,25.40
2023-06-11T19:06:22.411Z,25.30
2023-06-11T19:08:55.473Z,25.20
2023-06-11T19:11:28.454Z,25.20
2023-06-11T19:14:01.988Z,25.10
2023-06-11T19:16:35.260Z,25.00
2023-06-11T19:19:08.508Z,25.00
2023-06-11T19:21:40.888Z,24.90
2023-06-11T19:24:17.334Z,24.80
2023-06-11T19:26:50.678Z,24.80
2023-06-11T19:29:24.530Z,24.70
2023-06-11T19:31:59.781Z,24.60
2023-06-11T19:34:32.737Z,24.60
2023-06-11T19:37:05.760Z,24.50
2023-06-11T19:39:38.713Z,24.40
2023-06-11T19:42:11.398Z,24.40
2023-06-11T19:44:44.040Z,24.30
2023-06-11T19:47:16.985Z,24.20
2023-06-11T19:49:51.472Z,24.10
2023-06-11T19:52:24.580Z,24.10
2023-06-11T19:54:59.147Z,24.00
2023-06-11T19:57:32.545Z,23.90
2023-06-11T20:00:06.071Z,23.90
2023-06-11T20:02:39.259Z,23.80
2023-06-11T20:05:12.523Z,23.70
2023-06-11T20:07:45.762Z,23.70
2023-06-11T20:10:18.608Z,23.60
2023-06-11T20:12:51.534Z,23.50
2023-06-11T20:15:24.304Z,23.50
2023-06-11T20:17:57.923Z,23.40
2023-06-11T20:20:33.533Z,23.30
2023-06-11T20:23:07.047Z,23.20
2023-06-11T20:25:39.869Z,23.20
2023-06-11T20:28:12.959Z,23.10
2023-06-11T20:30:45.946Z,23.00
2023-06-11T20:33:19.216Z,23.00
2023-06-11T20:35:52.325Z,22.80
2023-06-11T20:38:25.300Z,22.80
2023-06-11T20:40:59.003Z,22.70
2023-06-11T20:43:31.857Z,22.70
2023-06-11T20:46:15.315Z,22.60
2023-06-11T20:48:57.962Z,22.60
2023-06-11T20:51:31.454Z,22.50
2023-06-11T20:54:04.312Z,22.50
2023-06-11T20:56:37.539Z,22.50
2023-06-11T20:59:11.238Z,22.40
2023-06-11T21:01:43.916Z,22.30
2023-06-11T21:04:17.050Z,22.30
2023-06-11T21:06:50.006Z,22.20
2023-06-11T21:09:22.683Z,22.10
2023-06-11T21:11:58.194Z,22.10
2023-06-11T21:14:32.982Z,22.00
2023-06-11T21:17:06.140Z,21.90
2023-06-11T21:19:39.532Z,21.80
2023-06-11T21:22:12.368Z,21.80
2023-06-11T21:24:45.135Z,21.70
2023-06-11T21:27:17.942Z,21.70
2023-06-11T21:29:50.356Z,21.60
2023-06-11T21:32:23.489Z,21.50
2023-06-11T21:34:56.236Z,21.50
2023-06-11T21:37:28.985Z,21.30
2023-06-11T21:40:01.731Z,21.30
2023-06-11T21:42:35.231Z,21.20
2023-06-11T21:45:08.542Z,21.10
2023-06-11T21:47:42.260Z,21.00
2023-06-11T21:50:15.044Z,21.00
2023-06-11T21:52:47.944Z,20.90
2023-06-11T21:55:21.826Z,20.80
2023-06-11T21:57:54.332Z,20.70
2023-06-11T22:00:28.151Z,20.70
2023-06-11T22:03:01.645Z,20.60
2023-06-11T22:05:34.041Z,20.60
2023-06-11T22:08:06.964Z,20.50
2023-06-11T22:10:39.670Z,20.40
2023-06-11T22:13:12.763Z,20.40
2023-06-11T22:15:46.158Z,20.30
2023-06-11T22:18:18.721Z,20.30
2023-06-11T22:20:54.116Z,20.20
2023-06-11T22:23:45.138Z,20.10
2023-06-11T22:26:22.739Z,20.00
2023-06-11T22:28:55.859Z,20.00
2023-06-11T22:31:28.580Z,19.90
2023-06-11T22:34:01.537Z,19.80
2023-06-11T22:36:34.238Z,19.80
2023-06-11T22:39:06.903Z,19.70
2023-06-11T22:41:40.968Z,19.60
2023-06-11T22:44:14.426Z,19.60
2023-06-11T22:46:47.356Z,19.50
2023-06-11T22:49:19.898Z,19.50
2023-06-11T22:51:53.396Z,19.50
2023-06-11T22:54:26.928Z,19.40
2023-06-11T22:57:00.104Z,19.40
2023-06-11T22:59:33.272Z,19.30
2023-06-11T23:02:06.118Z,19.30
2023-06-11T23:04:40.463Z,19.20
2023-06-11T23:07:12.940Z,19.20
2023-06-11T23:09:49.387Z,19.10
2023-06-11T23:12:22.087Z,19.00
2023-06-11T23:14:54.209Z,19.00
2023-06-11T23:17:28.833Z,18.90
2023-06-11T23:20:03.037Z,18.90
2023-06-11T23:22:37.849Z,18.90
2023-06-11T23:25:12.441Z,18.90
2023-06-11T23:27:46.248Z,18.80
2023-06-11T23:30:18.926Z,18.80
2023-06-11T23:32:52.252Z,18.80
2023-06-11T23:35:25.213Z,18.80
2023-06-11T23:37:57.677Z,18.80
2023-06-11T23:40:30.349Z,18.70
2023-06-11T23:43:02.485Z,18.70
2023-06-11T23:45:34.662Z,18.70
2023-06-11T23:48:07.014Z,18.80
2023-06-11T23:50:42.828Z,18.90
2023-06-11T23:53:15.737Z,18.90
2023-06-11T23:55:48.148Z,18.90
2023-06-11T23:58:22.028Z,18.90
